Superferry II — SWKV — position and weather

sailwx.info

Track history (hours):
 
Tides and Currents Weather Stations Pressure Air Temp Water Temp Dewpoint Dewpoint Depression Visibility Wind Speed Wind Dir Waves Ship Positions

Superferry II

Last reported at 2015-May-27 15:22 UTC. Time now 2015-May-27 15:40 UTC.
Position N 38°01' E 024°03'.

Length 122 m; draft 4.7 m.

Type: Passenger vessel. MMSI: 237001000.

Date/timePositionNaut miles runAvg speedWind from/ knotsBaromVisibWave heightAir tempDewpointWater temp
2015-May-27 15:22N 38°01' E 024°03'4415.6
2015-May-27 12:32N 37°43' E 024°54'1616.8
2015-May-27 11:33N 37°32' E 025°09'9 9.1
2015-May-27 10:33N 37°28' E 025°19'0 0.0
2015-May-27 09:33N 37°28' E 025°19'1211.6
2015-May-27 08:33N 37°33' E 025°06'5116.0
2015-May-27 05:23N 37°59' E 024°11'7 0.5
2015-May-26 15:25N 38°01' E 024°02'4515.5
2015-May-26 12:34N 37°42' E 024°54'1616.1
2015-May-26 11:33N 37°32' E 025°09'9 9.1
2015-May-26 10:33N 37°28' E 025°19'0 0.0
2015-May-26 09:33N 37°28' E 025°19'1312.9
2015-May-26 08:33N 37°34' E 025°05'4715.5
2015-May-26 05:31N 37°58' E 024°14'9 0.6
2015-May-25 15:23N 38°01' E 024°03'4515.8
2015-May-25 12:33N 37°42' E 024°54'1615.7
2015-May-25 11:33N 37°32' E 025°09'9 9.1
2015-May-25 10:34N 37°28' E 025°19'0 0.0
2015-May-25 09:33N 37°28' E 025°19'1110.9
2015-May-25 08:33N 37°33' E 025°07'5116.2
2015-May-25 05:23N 37°59' E 024°11'910.2
2015-May-25 04:32N 38°01' E 024°01'0 0.0
2015-May-25 03:33N 38°01' E 024°01'0 0.0
2015-May-25 02:32N 38°01' E 024°01'0 0.0
2015-May-25 01:33N 38°01' E 024°01'0 0.0
2015-May-25 00:33N 38°01' E 024°01'0 0.0
2015-May-24 23:32N 38°01' E 024°01'0 0.0
2015-May-24 22:33N 38°01' E 024°01'0 0.0
2015-May-24 21:33N 38°01' E 024°01'0 0.1
2015-May-24 20:29N 38°01' E 024°01'5 1.2
2015-May-24 16:33N 37°60' E 024°07'5 4.3
2015-May-24 15:30N 38°01' E 024°01'4515.2
2015-May-24 12:33N 37°43' E 024°53'1716.9
2015-May-24 11:33N 37°32' E 025°09'9 9.1
2015-May-24 10:33N 37°28' E 025°19'0 0.0
2015-May-24 09:33N 37°28' E 025°19'1212.2
2015-May-24 08:34N 37°33' E 025°06'5015.7
2015-May-24 05:22N 37°59' E 024°11'8 0.6
2015-May-23 15:25N 38°01' E 024°01'4415.4
2015-May-23 12:33N 37°44' E 024°52'1817.7
2015-May-23 11:33N 37°32' E 025°09'9 9.1
2015-May-23 10:34N 37°28' E 025°19'0 0.0
2015-May-23 09:34N 37°28' E 025°19'1211.6
2015-May-23 08:34N 37°33' E 025°06'4915.7
2015-May-23 05:27N 37°58' E 024°13'1011.3
2015-May-23 04:32N 38°01' E 024°01'0 0.0
2015-May-23 03:32N 38°01' E 024°01'0 0.0
2015-May-23 02:33N 38°01' E 024°01'0 0.0
2015-May-23 01:29N 38°01' E 024°01'0 0.0
2015-May-23 00:33N 38°01' E 024°01'0 0.0
2015-May-22 23:33N 38°01' E 024°01'0 0.0
2015-May-22 22:33N 38°01' E 024°01'0 0.0
2015-May-22 21:30N 38°01' E 024°01'0 0.1
2015-May-22 20:33N 38°01' E 024°01'4 1.0
2015-May-22 16:33N 38°00' E 024°06'4 3.8
2015-May-22 15:28N 38°01' E 024°01'4415.1
2015-May-22 12:33N 37°44' E 024°52'1817.9
2015-May-22 11:33N 37°32' E 025°09'9 9.1
2015-May-22 10:33N 37°28' E 025°19'0 0.4
2015-May-22 09:33N 37°28' E 025°19'1212.2
2015-May-22 08:33N 37°34' E 025°05'5116.2
2015-May-22 05:24N 37°59' E 024°09'38 2.3
2015-May-21 12:32N 37°43' E 024°53'1717.0
2015-May-21 11:33N 37°32' E 025°09'9 9.1
2015-May-21 10:33N 37°28' E 025°19'0 0.0
2015-May-21 09:33N 37°28' E 025°19'1111.1
2015-May-21 08:33N 37°33' E 025°07'5316.3
2015-May-21 05:18N 37°59' E 024°09'5 0.4
2015-May-20 15:24N 38°01' E 024°03'4315.0
2015-May-20 12:34N 37°44' E 024°52'1817.6
2015-May-20 11:33N 37°32' E 025°09'9 9.1
2015-May-20 10:33N 37°28' E 025°19'0 0.0
2015-May-20 09:33N 37°28' E 025°19'1111.1
2015-May-20 08:33N 37°33' E 025°07'5416.2
2015-May-20 05:15N 37°60' E 024°08'5 0.3
2015-May-19 15:27N 38°01' E 024°03'4314.9
2015-May-19 12:33N 37°44' E 024°53'1717.4
2015-May-19 11:33N 37°32' E 025°09'9 9.1
2015-May-19 10:34N 37°28' E 025°19'0 0.0
2015-May-19 09:33N 37°28' E 025°19'1111.4
2015-May-19 08:33N 37°33' E 025°06'5315.9
2015-May-19 05:15N 37°59' E 024°09'5 0.4
2015-May-18 15:22N 38°01' E 024°03'4415.7
2015-May-18 12:33N 37°43' E 024°53'1716.6
2015-May-18 11:34N 37°32' E 025°09'9 9.1
2015-May-18 10:33N 37°28' E 025°19'0 0.0
2015-May-18 09:33N 37°28' E 025°19'1010.1
2015-May-18 08:33N 37°32' E 025°08'5216.3
2015-May-18 05:20N 37°59' E 024°11'8 0.9
2015-May-17 20:33N 38°01' E 024°01'4 1.1
2015-May-17 16:33N 38°00' E 024°06'4 4.0
2015-May-17 15:27N 38°01' E 024°01'  
Track history (hours):
 
Tides and Currents Weather Stations Pressure Air Temp Water Temp Dewpoint Dewpoint Depression Visibility Wind Speed Wind Dir Waves Ship Positions

Superferry II

Last reported at 2015-May-27 15:22 UTC. Time now 2015-May-27 15:40 UTC.
Position N 38°01' E 024°03'.

Length 122 m; draft 4.7 m.

Type: Passenger vessel. MMSI: 237001000.

Date/timePositionNaut miles runAvg speedWind from/ knotsBaromVisibWave heightAir tempDewpointWater temp
2015-May-27 15:22N 38°01' E 024°03'4415.6
2015-May-27 12:32N 37°43' E 024°54'1616.8
2015-May-27 11:33N 37°32' E 025°09'9 9.1
2015-May-27 10:33N 37°28' E 025°19'0 0.0
2015-May-27 09:33N 37°28' E 025°19'1211.6
2015-May-27 08:33N 37°33' E 025°06'5116.0
2015-May-27 05:23N 37°59' E 024°11'7 0.5
2015-May-26 15:25N 38°01' E 024°02'4515.5
2015-May-26 12:34N 37°42' E 024°54'1616.1
2015-May-26 11:33N 37°32' E 025°09'9 9.1
2015-May-26 10:33N 37°28' E 025°19'0 0.0
2015-May-26 09:33N 37°28' E 025°19'1312.9
2015-May-26 08:33N 37°34' E 025°05'4715.5
2015-May-26 05:31N 37°58' E 024°14'9 0.6
2015-May-25 15:23N 38°01' E 024°03'4515.8
2015-May-25 12:33N 37°42' E 024°54'1615.7
2015-May-25 11:33N 37°32' E 025°09'9 9.1
2015-May-25 10:34N 37°28' E 025°19'0 0.0
2015-May-25 09:33N 37°28' E 025°19'1110.9
2015-May-25 08:33N 37°33' E 025°07'5116.2
2015-May-25 05:23N 37°59' E 024°11'910.2
2015-May-25 04:32N 38°01' E 024°01'0 0.0
2015-May-25 03:33N 38°01' E 024°01'0 0.0
2015-May-25 02:32N 38°01' E 024°01'0 0.0
2015-May-25 01:33N 38°01' E 024°01'0 0.0
2015-May-25 00:33N 38°01' E 024°01'0 0.0
2015-May-24 23:32N 38°01' E 024°01'0 0.0
2015-May-24 22:33N 38°01' E 024°01'0 0.0
2015-May-24 21:33N 38°01' E 024°01'0 0.1
2015-May-24 20:29N 38°01' E 024°01'5 1.2
2015-May-24 16:33N 37°60' E 024°07'5 4.3
2015-May-24 15:30N 38°01' E 024°01'4515.2
2015-May-24 12:33N 37°43' E 024°53'1716.9
2015-May-24 11:33N 37°32' E 025°09'9 9.1
2015-May-24 10:33N 37°28' E 025°19'0 0.0
2015-May-24 09:33N 37°28' E 025°19'1212.2
2015-May-24 08:34N 37°33' E 025°06'5015.7
2015-May-24 05:22N 37°59' E 024°11'8 0.6
2015-May-23 15:25N 38°01' E 024°01'4415.4
2015-May-23 12:33N 37°44' E 024°52'1817.7
2015-May-23 11:33N 37°32' E 025°09'9 9.1
2015-May-23 10:34N 37°28' E 025°19'0 0.0
2015-May-23 09:34N 37°28' E 025°19'1211.6
2015-May-23 08:34N 37°33' E 025°06'4915.7
2015-May-23 05:27N 37°58' E 024°13'1011.3
2015-May-23 04:32N 38°01' E 024°01'0 0.0
2015-May-23 03:32N 38°01' E 024°01'0 0.0
2015-May-23 02:33N 38°01' E 024°01'0 0.0
2015-May-23 01:29N 38°01' E 024°01'0 0.0
2015-May-23 00:33N 38°01' E 024°01'0 0.0
2015-May-22 23:33N 38°01' E 024°01'0 0.0
2015-May-22 22:33N 38°01' E 024°01'0 0.0
2015-May-22 21:30N 38°01' E 024°01'0 0.1
2015-May-22 20:33N 38°01' E 024°01'4 1.0
2015-May-22 16:33N 38°00' E 024°06'4 3.8
2015-May-22 15:28N 38°01' E 024°01'4415.1
2015-May-22 12:33N 37°44' E 024°52'1817.9
2015-May-22 11:33N 37°32' E 025°09'9 9.1
2015-May-22 10:33N 37°28' E 025°19'0 0.4
2015-May-22 09:33N 37°28' E 025°19'1212.2
2015-May-22 08:33N 37°34' E 025°05'5116.2
2015-May-22 05:24N 37°59' E 024°09'38 2.3
2015-May-21 12:32N 37°43' E 024°53'1717.0
2015-May-21 11:33N 37°32' E 025°09'9 9.1
2015-May-21 10:33N 37°28' E 025°19'0 0.0
2015-May-21 09:33N 37°28' E 025°19'1111.1
2015-May-21 08:33N 37°33' E 025°07'5316.3
2015-May-21 05:18N 37°59' E 024°09'5 0.4
2015-May-20 15:24N 38°01' E 024°03'4315.0
2015-May-20 12:34N 37°44' E 024°52'1817.6
2015-May-20 11:33N 37°32' E 025°09'9 9.1
2015-May-20 10:33N 37°28' E 025°19'0 0.0
2015-May-20 09:33N 37°28' E 025°19'1111.1
2015-May-20 08:33N 37°33' E 025°07'5416.2
2015-May-20 05:15N 37°60' E 024°08'5 0.3
2015-May-19 15:27N 38°01' E 024°03'4314.9
2015-May-19 12:33N 37°44' E 024°53'1717.4
2015-May-19 11:33N 37°32' E 025°09'9 9.1
2015-May-19 10:34N 37°28' E 025°19'0 0.0
2015-May-19 09:33N 37°28' E 025°19'1111.4
2015-May-19 08:33N 37°33' E 025°06'5315.9
2015-May-19 05:15N 37°59' E 024°09'5 0.4
2015-May-18 15:22N 38°01' E 024°03'4415.7
2015-May-18 12:33N 37°43' E 024°53'1716.6
2015-May-18 11:34N 37°32' E 025°09'9 9.1
2015-May-18 10:33N 37°28' E 025°19'0 0.0
2015-May-18 09:33N 37°28' E 025°19'1010.1
2015-May-18 08:33N 37°32' E 025°08'5216.3
2015-May-18 05:20N 37°59' E 024°11'8 0.9
2015-May-17 20:33N 38°01' E 024°01'4 1.1
2015-May-17 16:33N 38°00' E 024°06'4 4.0
2015-May-17 15:27N 38°01' E 024°01'  

Dump ship's entire track history